Nearby METAR Reports

 

KBUF - Buffalo/Cheektow, New York, USA
Distance from station: ENE 2mi, 3km
Updated: 02/23/2018 1:25am
Overcast
Overcast
 Wind from ENE
Wind: ENE 12 mph , 19 km/h
Temperature: 34°F , 1°C
Wind Chill: 25°F , -4°C
Dew Point: 30°F , -1°C
Humidity: 87%
Barometer: 30.53 inHg , 1033.9 hPa
Clouds: Overcast
Visibility: 10 miles , 16 km
Cloud details: Mostly cloudy 900 ft
Overcast 3300 ft
2018/02/23 06:25 KBUF 230625Z 07010KT 10SM BKN009 OVC033 01/M01 A3053 RMK AO2 T00111006 $
KIAG - Niagara Falls, New York, USA
Distance from station: NNW 16mi, 25km
Updated: 02/23/2018 12:53am
Overcast
Overcast
 Wind from E
Wind: E 14 mph , 22 km/h
Temperature: 36°F , 2°C
Wind Chill: 27°F , -3°C
Dew Point: 28°F , -2°C
Humidity: 75%
Barometer: 30.54 inHg , 1034.2 hPa
Clouds: Overcast
Visibility: 10 miles , 16 km
Cloud details: Overcast 800 ft
2018/02/23 05:53 KIAG 230553Z AUTO 08012KT 10SM OVC008 02/M02 A3054 RMK AO2 SLP356 T00171017 10017 20011 58022
 
CYSN - St. Catharines A, Ontario, Canada
Distance from station: NW 28mi, 45km
Updated: 02/22/2018 9:00pm
NOT Current
Overcast
Overcast
 Wind from E
Wind: E 9 mph , 15 km/h
Temperature: 32°F , 0°C
Wind Chill: 24°F , -4°C
Dew Point: 28°F , -2°C
Humidity: 87%
Barometer: 30.62 inHg , 1036.9 hPa
Clouds: Overcast
Visibility: 15 miles , 24 km
Cloud details: Overcast 1100 ft
2018/02/23 02:00 CYSN 230200Z 08008KT 15SM OVC011 00/M02 A3062 RMK SC8 LAST STFD OBS/NEXT 23 1200UTC SLP376
CWWZ - Port Weller (mar, Ontario, Canada
Distance from station: NW 32mi, 51km
Updated: 02/23/2018 1:00am

 Wind from ENE
Wind: ENE 20 mph , 31 km/h
Temperature: 34°F , 1°C
Wind Chill: 23°F , -5°C
Dew Point: 30°F , -1°C
Humidity: 87%
2018/02/23 06:00 CWWZ 230600Z AUTO 07017KT 01/M01 RMK AO1 PK WND 07020/0549 SLP356 T00071012 58022
 
CXVN - Vineland (au8), Ontario, Canada
Distance from station: WNW 37mi, 59km
Updated: 02/23/2018 1:00am

 Wind from ENE
Wind: ENE 9 mph , 15 km/h
Temperature: 34°F , 1°C
Wind Chill: 27°F , -3°C
Dew Point: 30°F , -1°C
Humidity: 87%
2018/02/23 06:00 CXVN 230600Z AUTO 07008KT 01/M01 RMK AO1 SOG 01 8021 SLP348 T00071014
KDKK - Dunkirk, New York, USA
Distance from station: SW 39mi, 63km
Updated: 02/23/2018 12:53am
Overcast
Overcast
 Wind from ENE
Wind: ENE 10 mph , 17 km/h
Temperature: 36°F , 2°C
Wind Chill: 29°F , -2°C
Dew Point: 34°F , 1°C
Humidity: 93%
Barometer: 30.49 inHg , 1032.5 hPa
Clouds: Overcast
Visibility: 10 miles , 16 km
Cloud details: Overcast 1800 ft
2018/02/23 05:53 KDKK 230553Z AUTO 06009KT 10SM OVC018 02/01 A3049 RMK AO2 SLP334 T00170006 10017 20006 58023
 
KOLE - Olean, New York, USA
Distance from station: SSE 52mi, 83km
Updated: 02/23/2018 1:15am
Mist, Overcast
Mist, Overcast
 Wind from ESE
Wind: ESE 9 mph , 15 km/h
Temperature: 30°F , -1°C
Wind Chill: 22°F , -6°C
Dew Point: 30°F , -1°C
Humidity: 100%
Barometer: 30.47 inHg , 1031.8 hPa
Summary: Mist
Clouds: Overcast
Visibility: 5 miles , 8 km
Cloud details: Overcast 200 ft
2018/02/23 06:15 KOLE 230615Z AUTO 11008KT 5SM BR OVC002 M01/M01 A3047 RMK AO2
KROC - Rochester, New York, USA
Distance from station: ENE 56mi, 91km
Updated: 02/23/2018 12:54am
Overcast
Overcast
 Wind from ESE
Wind: ESE 12 mph , 19 km/h
Temperature: 34°F , 1°C
Wind Chill: 25°F , -4°C
Dew Point: 30°F , -1°C
Humidity: 87%
Barometer: 30.59 inHg , 1035.9 hPa
Clouds: Overcast
Visibility: 10 miles , 16 km
Cloud details: Overcast 600 ft
2018/02/23 05:54 KROC 230554Z 11010KT 10SM OVC006 01/M01 A3059 RMK AO2 PRESFR SLP370 T00061006 10011 20006 58024
 
CWWB - Burlington Piers, Ontario, Canada
Distance from station: WNW 57mi, 92km
Updated: 02/23/2018 1:00am

 
Temperature: 34°F , 1°C
Dew Point: 30°F , -1°C
Humidity: 87%
2018/02/23 06:00 CWWB 230600Z AUTO 01/M01 RMK AO1 22 0547Z 6020 SLP359 T00101011
CYTZ - Toronto Il Vor, Ontario, Canada
Distance from station: NNW 58mi, 94km
Updated: 02/23/2018 1:00am
Overcast
Overcast
 Wind from ENE
Wind: ENE 22 mph , 35 km/h
Temperature: 32°F , 0°C
Wind Chill: 19°F , -7°C
Dew Point: 27°F , -3°C
Humidity: 80%
Barometer: 30.60 inHg , 1036.2 hPa
Clouds: Overcast
Visibility: 9 miles , 14 km
Cloud details: Overcast 1500 ft
2018/02/23 06:00 CYTZ 230600Z AUTO 07019KT 9SM OVC015 00/M03 A3060 RMK SLP367
 
KDSV - Dansville, New York, USA
Distance from station: ESE 59mi, 95km
Updated: 02/23/2018 1:20am
Overcast
Overcast
 Wind from SSE
Wind: SSE 6 mph , 9 km/h
Temperature: 36°F , 2°C
Wind Chill: 31°F , -1°C
Dew Point: 30°F , -1°C
Humidity: 81%
Barometer: 30.56 inHg , 1034.9 hPa
Clouds: Overcast
Visibility: 10 miles , 16 km
Cloud details: Mostly cloudy 1700 ft
Overcast 4000 ft
2018/02/23 06:20 KDSV 230620Z AUTO 15005KT 10SM BKN017 OVC040 02/M01 A3056 RMK AO2 T00171011 $
CXTO - Toronto City, Ontario, Canada
Distance from station: NNW 60mi, 97km
Updated: 02/23/2018 1:00am

 
Temperature: 32°F , 0°C
Dew Point: 25°F , -4°C
Humidity: 75%
2018/02/23 06:00 CXTO 230600Z AUTO 00/M04 RMK AO1 SLP362 T00001043 56018
 
KJHW - Jamestown, New York, USA
Distance from station: SSW 60mi, 97km
Updated: 02/22/2018 11:56pm
NOT Current

 
Visibility: 10 miles , 16 km
2018/02/23 04:56 KJHW 230456Z AUTO 10SM RMK AO2 SLPNO FZRANO $
CYHM - Hamilton Airport, Ontario, Canada
Distance from station: WNW 61mi, 98km
Updated: 02/23/2018 1:00am
Overcast
Overcast
 Wind from ENE
Wind: ENE 17 mph , 28 km/h, Gust: 25 mph , 41 km/h
Temperature: 32°F , 0°C
Wind Chill: 21°F , -6°C
Dew Point: 30°F , -1°C
Humidity: 93%
Barometer: 30.52 inHg , 1033.5 hPa
Clouds: Overcast
Visibility: 10 miles , 16 km
Cloud details: Overcast 500 ft
2018/02/23 06:00 CYHM 230600Z 06015G22KT 10SM OVC005 M00/M01 A3052 RMK SC8 SLP349
 
CXHM - Hamilton Rbg Cs, Ontario, Canada
Distance from station: WNW 62mi, 100km
Updated: 02/23/2018 1:00am

 Wind from ENE
Wind: ENE 13 mph , 20 km/h, Gust: 20 mph , 31 km/h
Temperature: 34°F , 1°C
Wind Chill: 25°F , -4°C
2018/02/23 06:00 CXHM 230600Z AUTO 07011G17KT 01/ RMK AO1 PK WND 09017/0551 SLP349 T0008 56022
CYYZ - Toronto/Pearson, Ontario, Canada
Distance from station: NW 67mi, 107km
Updated: 02/23/2018 1:00am
Overcast
Overcast
 Wind from E
Wind: E 9 mph , 15 km/h
Temperature: 30°F , -1°C
Wind Chill: 22°F , -6°C
Dew Point: 23°F , -5°C
Humidity: 75%
Barometer: 30.58 inHg , 1035.6 hPa
Clouds: Overcast
Visibility: 15 miles , 24 km
Cloud details: Overcast 1500 ft
2018/02/23 06:00 CYYZ 230600Z 09008KT 15SM OVC015 M01/M05 A3058 RMK SC8 SLP365
 
CWPS - Long Point (maps, Ontario, Canada
Distance from station: WSW 69mi, 111km
Updated: 02/23/2018 12:00am
NOT Current

 Wind from NNE
Wind: NNE 30 mph , 48 km/h
Temperature: 34°F , 1°C
Wind Chill: 20°F , -7°C
Dew Point: 34°F , 1°C
Humidity: 100%
2018/02/23 05:00 CWPS 230500Z AUTO 02026KT 01/01 RMK AO1 PK WND 03030/0447 T00060005 58030
CYOO - Oshawa, Ontario, Canada
Distance from station: N 69mi, 111km
Updated: 02/23/2018 1:04am
Mostly cloudy
Mostly cloudy
 Wind from E
Wind: E 9 mph , 15 km/h
Temperature: 27°F , -3°C
Wind Chill: 18°F , -8°C
Dew Point: 18°F , -8°C
Humidity: 69%
Barometer: 30.62 inHg , 1036.9 hPa
Clouds: Mostly cloudy
Visibility: 9 miles , 14 km
Cloud details: Mostly cloudy 1900 ft
2018/02/23 06:04 CYOO 230604Z AUTO 08008KT 9SM BKN019 M03/M08 A3062 RMK SLP379
 
KELZ - Wellsville, New York, USA
Distance from station: SE 70mi, 112km
Updated: 02/23/2018 1:11am
Mist, Overcast
Mist, Overcast
 Wind from SE
Wind: SE 10 mph , 17 km/h
Temperature: 32°F , 0°C
Wind Chill: 24°F , -4°C
Dew Point: 32°F , 0°C
Humidity: 100%
Barometer: 30.49 inHg , 1032.5 hPa
Summary: Mist
Clouds: Overcast
Visibility: 2 1/2 miles , 2 km
Cloud details: Overcast 200 ft
2018/02/23 06:11 KELZ 230611Z AUTO 13009KT 2 1/2SM BR OVC002 00/00 A3049 RMK AO2 T00000000
CYKZ - Toronto Buttonvi, Ontario, Canada
Distance from station: NNW 72mi, 116km
Updated: 02/23/2018 1:00am
Mostly cloudy
Mostly cloudy
 Wind from E
Wind: E 7 mph , 11 km/h
Temperature: 28°F , -2°C
Wind Chill: 21°F , -6°C
Dew Point: 21°F , -6°C
Humidity: 74%
Barometer: 30.59 inHg , 1035.9 hPa
Clouds: Mostly cloudy
Visibility: 15 miles , 24 km
Cloud details: Mostly cloudy 1600 ft
2018/02/23 06:00 CYKZ 230600Z 08006KT 15SM BKN016 M02/M06 A3059 RMK SC7 PRESFR SLP370